Time;durP1;ratioP1;P1;durP2;ratioP2;P2;SDS_P1;SDS_P2;PMS_P1;PMS_P2;Temp;Humidity;BMP_temperature;BMP_pressure;BME280_temperature;BME280_humidity;BME280_pressure;Samples;Min_cycle;Max_cycle;Signal;HPM_P1;HPM_P2
2021/03/28 00:04:52;;;;;;;4.00;1.98;;;;;;;3.76;64.57;101270.72;10596001;27;20103;-67
2021/03/28 00:09:58;;;;;;;2.92;1.30;;;;;;;3.87;64.04;101279.59;10634272;27;20063;-67
2021/03/28 00:15:08;;;;;;;3.00;2.08;;;;;;;3.94;63.54;101271.03;10614333;27;20047;-67
2021/03/28 00:20:15;;;;;;;4.85;1.63;;;;;;;3.78;63.92;101276.84;10633178;27;20147;-67
2021/03/28 00:25:31;;;;;;;4.30;1.65;;;;;;;3.77;63.82;101272.50;10634237;27;20043;-66
2021/03/28 00:30:38;;;;;;;3.67;1.42;;;;;;;3.75;63.80;101274.19;10632844;27;20039;-69
2021/03/28 00:35:54;;;;;;;3.38;1.55;;;;;;;3.76;63.78;101269.03;10633346;27;20453;-68
2021/03/28 00:41:09;;;;;;;4.80;1.67;;;;;;;3.76;63.73;101265.53;10632316;27;20035;-68
2021/03/28 00:46:29;;;;;;;2.90;1.70;;;;;;;3.63;64.06;101271.38;10632755;27;20385;-69
2021/03/28 00:51:46;;;;;;;4.88;1.70;;;;;;;3.63;64.02;101272.28;10613533;27;20047;-67
2021/03/28 00:56:58;;;;;;;6.32;2.30;;;;;;;3.66;63.85;101276.63;10597007;27;20561;-67
2021/03/28 01:02:10;;;;;;;3.67;1.77;;;;;;;3.59;64.39;101273.09;10614614;27;20043;-67
2021/03/28 01:07:21;;;;;;;2.47;1.48;;;;;;;3.52;64.72;101276.41;10632681;27;20118;-67
2021/03/28 01:12:50;;;;;;;2.70;1.83;;;;;;;3.54;64.48;101274.69;10632139;27;20043;-68
2021/03/28 01:18:01;;;;;;;5.53;1.90;;;;;;;3.46;64.72;101284.13;10633087;27;20039;-67
2021/03/28 01:23:09;;;;;;;3.47;1.77;;;;;;;3.43;64.72;101281.47;10632039;27;20453;-67
2021/03/28 01:28:30;;;;;;;3.20;1.80;;;;;;;3.49;64.52;101274.63;10631372;27;20496;-67
2021/03/28 01:33:53;;;;;;;2.72;1.67;;;;;;;3.45;64.65;101285.84;10631922;27;20043;-67
2021/03/28 01:39:08;;;;;;;2.63;1.65;;;;;;;3.42;64.91;101275.38;10630015;27;20043;-66
2021/03/28 01:44:37;;;;;;;3.60;1.50;;;;;;;3.45;64.69;101277.16;10630305;27;20049;-66
2021/03/28 01:49:44;;;;;;;4.65;1.95;;;;;;;3.50;64.28;101283.31;10631446;27;20054;-66
2021/03/28 01:54:58;;;;;;;2.40;1.60;;;;;;;3.48;64.21;101283.28;10629441;27;20437;-66
2021/03/28 02:00:21;;;;;;;2.45;1.55;;;;;;;3.44;64.40;101281.47;10629700;27;20485;-66
2021/03/28 02:05:32;;;;;;;2.40;1.60;;;;;;;3.44;64.46;101283.19;10630784;27;20076;-66
2021/03/28 02:11:11;;;;;;;2.08;1.60;;;;;;;3.22;64.98;101279.34;10627766;27;20070;-66
2021/03/28 02:16:30;;;;;;;3.60;2.15;;;;;;;3.10;65.16;101289.50;10628041;27;20047;-66
2021/03/28 02:21:59;;;;;;;3.67;2.00;;;;;;;3.22;64.87;101293.22;10609633;27;20069;-67
2021/03/28 02:27:22;;;;;;;4.70;2.03;;;;;;;3.20;65.32;101286.25;10610022;27;20092;-66
2021/03/28 02:32:35;;;;;;;3.28;2.20;;;;;;;3.15;65.29;101293.97;10629053;27;20051;-64
2021/03/28 02:37:47;;;;;;;3.65;1.95;;;;;;;3.03;65.69;101286.81;10609095;27;20039;-65
2021/03/28 02:43:31;;;;;;;3.17;2.17;;;;;;;3.12;65.31;101285.22;10626477;27;20407;-65
2021/03/28 02:48:40;;;;;;;3.42;2.10;;;;;;;3.15;65.15;101280.09;10579509;28;20057;-66
2021/03/28 02:54:09;;;;;;;2.45;1.95;;;;;;;3.11;65.24;101273.09;10626963;28;20035;-65
2021/03/28 02:59:30;;;;;;;3.33;2.08;;;;;;;3.13;65.18;101282.66;10627190;28;20045;-65
2021/03/28 03:04:45;;;;;;;4.32;1.90;;;;;;;3.15;64.99;101285.31;10609367;28;20390;-65
2021/03/28 03:10:09;;;;;;;3.47;2.40;;;;;;;3.16;65.10;101289.63;10626984;28;20044;-65
2021/03/28 03:15:32;;;;;;;3.60;2.20;;;;;;;3.16;64.87;101282.72;10627010;28;20120;-66
2021/03/28 03:20:59;;;;;;;4.68;2.90;;;;;;;3.14;64.99;101288.72;10626387;28;20045;-65
2021/03/28 03:26:16;;;;;;;;;;;;;;;3.15;65.30;101290.50;10627512;28;20043;-65
2021/03/28 03:31:55;;;;;;;4.53;2.17;;;;;;;3.13;65.13;101290.44;10627911;28;19954;-66
2021/03/28 03:37:19;;;;;;;5.70;2.67;;;;;;;3.11;65.24;101299.09;10544272;28;20055;-65
2021/03/28 03:42:42;;;;;;;3.35;2.17;;;;;;;3.17;65.09;101312.16;10627615;28;20049;-66
2021/03/28 03:47:56;;;;;;;2.88;2.55;;;;;;;3.08;64.83;101315.47;10627471;28;20429;-67
2021/03/28 03:53:15;;;;;;;3.63;2.92;;;;;;;3.08;65.26;101319.78;10596615;27;20078;-66
2021/03/28 03:58:22;;;;;;;4.68;3.35;;;;;;;3.06;65.14;101330.16;10635467;27;20450;-66
2021/03/28 04:03:44;;;;;;;3.50;2.58;;;;;;;2.88;65.64;101324.56;10633836;27;20039;-67
2021/03/28 04:09:06;;;;;;;3.53;2.70;;;;;;;2.84;65.50;101326.25;10634230;27;20032;-66
2021/03/28 04:14:39;;;;;;;4.53;2.42;;;;;;;2.87;65.57;101334.09;10634941;27;20039;-67
2021/03/28 04:20:21;;;;;;;3.50;2.40;;;;;;;2.96;65.01;101328.22;10634371;27;20039;-67
2021/03/28 04:25:59;;;;;;;4.15;3.05;;;;;;;2.88;65.37;101332.38;10623324;27;20063;-67
2021/03/28 04:31:25;;;;;;;4.40;2.90;;;;;;;2.88;65.16;101341.06;10634941;27;20047;-65
2021/03/28 04:36:44;;;;;;;4.38;3.22;;;;;;;2.93;64.90;101333.38;10635951;27;20039;-67
2021/03/28 04:42:22;;;;;;;4.70;2.97;;;;;;;3.01;64.74;101331.78;10634627;27;20043;-67
2021/03/28 04:47:51;;;;;;;6.35;3.50;;;;;;;3.04;64.64;101347.44;10633466;27;20046;-66
2021/03/28 04:53:30;;;;;;;6.10;3.40;;;;;;;2.96;64.91;101347.25;10616333;27;20051;-65
2021/03/28 04:58:59;;;;;;;5.97;2.72;;;;;;;3.10;64.48;101341.47;10634072;27;20126;-66
2021/03/28 05:04:19;;;;;;;4.20;2.75;;;;;;;3.09;64.42;101332.81;10632958;27;20087;-66
2021/03/28 05:09:57;;;;;;;4.75;2.83;;;;;;;3.19;64.28;101334.75;10633133;27;20447;-66
2021/03/28 05:15:39;;;;;;;4.38;2.83;;;;;;;3.32;63.55;101342.75;10613973;27;20077;-66
2021/03/28 05:20:53;;;;;;;3.60;2.67;;;;;;;3.16;64.02;101354.59;10632984;27;20046;-68
2021/03/28 05:26:33;;;;;;;4.53;3.42;;;;;;;3.27;63.69;101353.06;10635440;27;20058;-67
2021/03/28 05:31:46;;;;;;;5.63;2.97;;;;;;;3.19;64.13;101352.06;10615371;27;20047;-66
2021/03/28 05:37:15;;;;;;;4.65;3.33;;;;;;;3.28;63.93;101344.44;10634025;27;20031;-66
2021/03/28 05:42:28;;;;;;;4.93;2.60;;;;;;;3.26;64.65;101341.78;10615428;27;20563;-66
2021/03/28 05:47:54;;;;;;;5.32;3.17;;;;;;;3.58;63.90;101340.63;10632884;27;20042;-67
2021/03/28 05:53:04;;;;;;;4.70;3.22;;;;;;;3.67;63.88;101346.88;10633581;27;20043;-66
2021/03/28 05:58:35;;;;;;;5.47;3.50;;;;;;;3.84;63.42;101354.97;10634023;27;20397;-66
2021/03/28 06:04:08;;;;;;;22.48;3.92;;;;;;;4.37;61.40;101359.25;10615757;27;20035;-66
2021/03/28 06:09:27;;;;;;;6.68;2.97;;;;;;;4.95;59.99;101360.91;10614701;27;20051;-65
2021/03/28 06:14:34;;;;;;;5.43;3.00;;;;;;;6.28;56.95;101353.53;10612376;27;20054;-66
2021/03/28 06:20:11;;;;;;;3.47;2.30;;;;;;;8.34;52.36;101347.97;10631822;27;20043;-67
2021/03/28 06:25:39;;;;;;;3.13;2.10;;;;;;;7.97;51.94;101350.66;10613398;27;20092;-66
2021/03/28 06:31:11;;;;;;;2.92;2.33;;;;;;;8.11;51.78;101353.25;10632399;27;20047;-66
2021/03/28 06:36:43;;;;;;;2.92;2.45;;;;;;;8.98;49.72;101363.53;10632687;27;20476;-66
2021/03/28 06:42:06;;;;;;;3.75;2.10;;;;;;;8.66;50.89;101347.94;10632581;27;20043;-66
2021/03/28 06:47:38;;;;;;;4.30;2.58;;;;;;;8.83;49.84;101364.50;10632105;27;20043;-67
2021/03/28 06:52:55;;;;;;;3.70;2.60;;;;;;;8.94;50.57;101369.72;10614677;28;20043;-65
2021/03/28 06:58:30;;;;;;;5.33;2.43;;;;;;;9.19;48.12;101361.72;10612937;28;20050;-66
2021/03/28 07:03:50;;;;;;;3.38;1.90;;;;;;;9.32;48.64;101371.28;10631765;28;20500;-66
2021/03/28 07:09:16;;;;;;;4.45;2.13;;;;;;;9.50;48.94;101365.91;10631345;28;20035;-65
2021/03/28 07:14:20;;;;;;;2.90;2.03;;;;;;;9.97;48.32;101364.72;10631883;28;20454;-67
2021/03/28 07:19:51;;;;;;;4.85;2.28;;;;;;;9.94;47.11;101364.75;10629473;28;20051;-67
2021/03/28 07:25:23;;;;;;;4.78;2.50;;;;;;;9.62;47.45;101359.72;10630341;27;20066;-67
2021/03/28 07:30:37;;;;;;;4.90;2.65;;;;;;;9.22;49.84;101359.09;10619862;27;20096;-67
2021/03/28 07:36:01;;;;;;;3.72;1.98;;;;;;;9.70;46.72;101346.56;10638628;27;20047;-67
2021/03/28 07:41:24;;;;;;;4.85;2.08;;;;;;;9.51;45.69;101349.28;10638785;27;20031;-66
2021/03/28 07:46:58;;;;;;;3.58;1.83;;;;;;;9.19;48.09;101345.97;10638938;27;20054;-66
2021/03/28 07:52:16;;;;;;;4.75;2.05;;;;;;;9.47;46.50;101349.31;10638336;27;20043;-66
2021/03/28 07:57:19;;;;;;;3.97;2.10;;;;;;;9.26;46.58;101345.94;10638881;27;20129;-65
2021/03/28 08:02:35;;;;;;;3.70;1.70;;;;;;;8.99;48.66;101346.09;10619452;27;20073;-67
2021/03/28 08:07:50;;;;;;;3.57;1.67;;;;;;;9.04;48.09;101350.44;10636800;27;20404;-66
2021/03/28 08:13:28;;;;;;;5.13;1.75;;;;;;;9.40;47.06;101360.75;10637497;27;20126;-67
2021/03/28 08:18:48;;;;;;;3.75;1.98;;;;;;;9.30;46.46;101358.19;10617864;27;20043;-66
2021/03/28 08:24:22;;;;;;;7.70;1.92;;;;;;;9.38;46.47;101371.22;10636326;27;20051;-66
2021/03/28 08:30:38;;;;;;;5.13;1.55;;;;;;;9.75;46.11;101368.41;10637904;27;20058;-67
2021/03/28 08:35:53;;;;;;;4.03;1.77;;;;;;;9.53;45.82;101380.78;10509521;27;20050;-67
2021/03/28 08:41:10;;;;;;;12.55;2.45;;;;;;;9.23;46.74;101368.69;10618651;27;20418;-66
2021/03/28 08:46:25;;;;;;;;;;;;;;;9.55;45.39;101382.50;10619768;27;20096;-67
2021/03/28 08:51:54;;;;;;;5.20;2.28;;;;;;;9.46;45.21;101384.31;10634198;27;19968;-66
2021/03/28 08:57:01;;;;;;;3.47;1.77;;;;;;;9.86;44.68;101380.53;10617389;27;20050;-66
2021/03/28 09:02:05;;;;;;;;;;;;;;;10.20;43.58;101382.03;10633188;27;20051;-65
2021/03/28 09:07:13;;;;;;;5.55;2.30;;;;;;;10.44;43.64;101384.47;10633531;27;19920;-67
2021/03/28 09:12:56;;;;;;;4.15;1.88;;;;;;;11.00;42.51;101384.75;10615005;27;20088;-66
2021/03/28 09:18:00;;;;;;;4.35;1.95;;;;;;;11.00;42.99;101387.38;10583315;27;20138;-66
2021/03/28 09:23:10;;;;;;;4.47;1.75;;;;;;;10.82;42.87;101380.56;10633246;27;20047;-67
2021/03/28 09:28:27;;;;;;;5.65;1.80;;;;;;;10.63;43.19;101379.91;10615906;27;20496;-67
2021/03/28 09:33:55;;;;;;;6.50;1.67;;;;;;;10.82;44.52;101380.56;10631696;27;20042;-65
2021/03/28 09:39:29;;;;;;;4.80;2.03;;;;;;;10.94;43.56;101396.22;10612344;27;20645;-67
2021/03/28 09:45:13;;;;;;;5.03;2.03;;;;;;;10.39;45.19;101382.78;10646995;27;20083;-65
2021/03/28 09:50:38;;;;;;;6.47;2.28;;;;;;;10.54;44.79;101375.63;10650676;27;20042;-67
2021/03/28 09:55:52;;;;;;;4.95;2.38;;;;;;;11.03;44.64;101377.69;10632565;27;20039;-68
2021/03/28 10:01:28;;;;;;;5.53;1.98;;;;;;;11.24;44.00;101370.41;10631724;27;20068;-65
2021/03/28 10:06:32;;;;;;;6.82;2.13;;;;;;;11.31;45.00;101378.22;10595669;27;20039;-65
2021/03/28 10:11:48;;;;;;;8.77;1.98;;;;;;;10.97;44.28;101379.53;10623802;27;20103;-66
2021/03/28 10:17:26;;;;;;;6.50;2.38;;;;;;;11.23;45.46;101381.84;10631196;27;20567;-66
2021/03/28 10:22:52;;;;;;;6.97;1.98;;;;;;;11.29;45.73;101382.63;10568981;28;20485;-66
2021/03/28 10:28:16;;;;;;;4.90;2.00;;;;;;;11.49;43.30;101363.06;10585378;28;20122;-65
2021/03/28 10:33:39;;;;;;;5.50;2.40;;;;;;;11.90;42.25;101370.34;10586294;28;20114;-66
2021/03/28 10:38:52;;;;;;;6.68;2.10;;;;;;;11.92;42.08;101368.56;10586010;28;20074;-66
2021/03/28 10:44:28;;;;;;;3.75;1.50;;;;;;;11.89;41.07;101358.06;10569604;28;20089;-67
2021/03/28 10:50:06;;;;;;;5.47;2.47;;;;;;;11.51;41.43;101351.63;10552403;28;20493;-67
2021/03/28 10:55:45;;;;;;;7.63;2.05;;;;;;;11.69;42.35;101358.38;10585264;28;20039;-64
2021/03/28 11:00:56;;;;;;;7.75;2.53;;;;;;;11.66;40.82;101352.28;10568861;28;20093;-66
2021/03/28 11:06:23;;;;;;;6.95;2.45;;;;;;;11.86;41.11;101353.75;10593360;28;20047;-65
2021/03/28 11:11:33;;;;;;;;;;;;;;;11.73;41.37;101346.91;10576803;28;20052;-66
2021/03/28 11:16:42;;;;;;;5.70;2.80;;;;;;;11.40;42.45;101358.78;10603447;28;19920;-66
2021/03/28 11:22:02;;;;;;;7.55;2.00;;;;;;;11.57;42.21;101350.66;10596385;28;20044;-65
2021/03/28 11:27:47;;;;;;;7.88;2.22;;;;;;;11.51;42.11;101343.72;10600360;28;20101;-67
2021/03/28 11:32:49;;;;;;;6.95;2.30;;;;;;;12.12;41.13;101341.88;10566050;28;20047;-65
2021/03/28 11:37:54;;;;;;;5.65;1.45;;;;;;;12.68;39.47;101344.38;10599377;28;20071;-66
2021/03/28 11:43:01;;;;;;;4.70;1.95;;;;;;;11.78;39.45;101345.06;10595824;28;20043;-66
2021/03/28 11:48:06;;;;;;;;;;;;;;;12.17;38.70;101339.16;10595633;28;20126;-67
2021/03/28 11:53:20;;;;;;;4.47;1.70;;;;;;;12.08;40.96;101333.16;10576965;28;19927;-67
2021/03/28 11:58:24;;;;;;;4.45;1.77;;;;;;;12.88;39.22;101331.63;10576442;28;20043;-67
2021/03/28 12:03:31;;;;;;;4.97;1.90;;;;;;;12.91;37.45;101330.72;10615108;27;20081;-66
2021/03/28 12:08:34;;;;;;;4.00;1.40;;;;;;;13.54;38.89;101338.16;10646822;27;20042;-67
2021/03/28 12:13:45;;;;;;;4.30;1.55;;;;;;;13.98;36.23;101331.78;10644381;27;20077;-67
2021/03/28 12:18:54;;;;;;;3.97;1.50;;;;;;;12.71;37.47;101333.78;10643164;27;20091;-67
2021/03/28 12:24:22;;;;;;;5.47;1.83;;;;;;;12.83;38.99;101339.66;10661161;27;20046;-67
2021/03/28 12:29:26;;;;;;;4.70;1.20;;;;;;;12.69;39.54;101341.72;10678109;27;20041;-67
2021/03/28 12:34:30;;;;;;;5.07;1.65;;;;;;;12.67;40.45;101326.81;10680813;27;20053;-67
2021/03/28 12:39:57;;;;;;;3.40;1.60;;;;;;;12.00;40.77;101332.44;10639603;27;20039;-67
2021/03/28 12:45:05;;;;;;;5.95;1.30;;;;;;;12.28;42.42;101316.13;10616852;27;20046;-66
2021/03/28 12:50:12;;;;;;;4.65;1.90;;;;;;;12.68;42.55;101321.50;10632177;27;20033;-66
2021/03/28 12:55:29;;;;;;;;;;;;;;;12.78;41.31;101316.91;10615912;27;20039;-65
2021/03/28 13:00:55;;;;;;;4.13;1.52;;;;;;;12.65;41.91;101310.13;10617734;27;20307;-65
2021/03/28 13:06:05;;;;;;;3.92;1.20;;;;;;;12.44;43.47;101296.50;10633633;27;20472;-65
2021/03/28 13:11:07;;;;;;;5.38;1.42;;;;;;;12.37;43.37;101297.50;10633521;27;20071;-65
2021/03/28 13:16:23;;;;;;;3.45;1.30;;;;;;;12.55;42.40;101291.84;10635289;27;20039;-66
2021/03/28 13:21:39;;;;;;;3.60;1.05;;;;;;;12.26;43.14;101279.25;10633911;27;20049;-65
2021/03/28 13:27:05;;;;;;;4.53;1.10;;;;;;;12.24;42.30;101270.50;10632363;27;20084;-66
2021/03/28 13:32:20;;;;;;;;;;;;;;;11.98;43.25;101283.28;10634393;27;20043;-65
2021/03/28 13:37:26;;;;;;;6.03;1.65;;;;;;;11.73;44.85;101273.13;10614303;27;19977;-66
2021/03/28 13:42:31;;;;;;;5.30;1.40;;;;;;;11.88;45.78;101265.91;10612116;27;20047;-65
2021/03/28 13:47:37;;;;;;;5.65;1.70;;;;;;;12.25;45.00;101274.84;10629510;27;20065;-64
2021/03/28 13:52:42;;;;;;;3.90;1.65;;;;;;;12.19;44.89;101268.84;10630714;27;20077;-66
2021/03/28 13:57:44;;;;;;;7.55;1.40;;;;;;;12.33;43.76;101269.44;10630769;27;20035;-66
2021/03/28 14:02:48;;;;;;;4.05;1.58;;;;;;;12.22;44.03;101272.31;10629378;27;20039;-65
2021/03/28 14:07:56;;;;;;;4.53;1.35;;;;;;;12.17;43.95;101278.53;10630149;27;20042;-66
2021/03/28 14:13:13;;;;;;;3.85;1.75;;;;;;;12.23;44.43;101281.06;10629324;27;20043;-66
2021/03/28 14:18:22;;;;;;;3.70;1.50;;;;;;;12.15;44.49;101270.66;10629265;27;20075;-69
2021/03/28 14:23:28;;;;;;;4.65;1.67;;;;;;;12.05;44.86;101269.97;10628951;27;20039;-70
2021/03/28 14:28:29;;;;;;;3.40;1.35;;;;;;;12.25;45.05;101263.44;10628102;27;20126;-65
2021/03/28 14:33:49;;;;;;;3.33;1.40;;;;;;;12.09;44.21;101265.53;10628212;27;20043;-66
2021/03/28 14:39:02;;;;;;;4.00;1.00;;;;;;;12.04;43.70;101257.69;10609126;27;20104;-65
2021/03/28 14:44:41;;;;;;;5.20;2.70;;;;;;;12.22;43.73;101251.22;10627084;27;20047;-66
2021/03/28 14:49:56;;;;;;;3.38;1.48;;;;;;;12.42;44.38;101248.16;10627291;27;20042;-67
2021/03/28 14:55:22;;;;;;;2.08;1.02;;;;;;;12.58;42.94;101249.59;10626813;28;20046;-66
2021/03/28 15:00:30;;;;;;;3.50;1.15;;;;;;;12.45;43.90;101242.84;10627719;28;20458;-67
2021/03/28 15:05:41;;;;;;;4.97;1.15;;;;;;;12.72;43.11;101229.97;10627933;28;20047;-67
2021/03/28 15:10:55;;;;;;;3.78;1.30;;;;;;;12.79;43.00;101228.94;10626869;28;20039;-66
2021/03/28 15:16:05;;;;;;;4.80;1.02;;;;;;;12.93;42.86;101232.16;10609209;28;20370;-67
2021/03/28 15:21:36;;;;;;;4.05;1.20;;;;;;;12.72;43.57;101229.97;10628341;28;20046;-66
2021/03/28 15:26:56;;;;;;;3.10;1.30;;;;;;;12.83;43.30;101225.31;10626441;28;20400;-67
2021/03/28 15:32:21;;;;;;;3.92;1.23;;;;;;;12.88;42.58;101226.97;10630386;28;20043;-69
2021/03/28 15:37:47;;;;;;;3.28;1.52;;;;;;;12.62;43.41;101234.59;10629797;28;20035;-69
2021/03/28 15:42:58;;;;;;;3.20;1.20;;;;;;;12.56;42.45;101229.41;10629190;28;20039;-68
2021/03/28 15:48:00;;;;;;;3.67;1.40;;;;;;;12.28;43.13;101223.84;10616104;27;20043;-69
2021/03/28 15:53:32;;;;;;;4.07;1.70;;;;;;;12.34;43.50;101227.22;10634294;27;20071;-69
2021/03/28 15:58:44;;;;;;;4.68;1.50;;;;;;;12.49;43.63;101222.56;10632187;27;20066;-69
2021/03/28 16:04:07;;;;;;;3.15;1.13;;;;;;;12.51;43.88;101224.25;10633155;27;20039;-68
2021/03/28 16:09:36;;;;;;;2.97;1.23;;;;;;;12.64;43.26;101209.03;10636071;27;20039;-68
2021/03/28 16:14:46;;;;;;;3.92;1.30;;;;;;;12.26;44.86;101207.19;10635871;27;20042;-69
2021/03/28 16:20:26;;;;;;;4.57;1.63;;;;;;;12.22;43.78;101197.59;10635947;27;20039;-69
2021/03/28 16:26:01;;;;;;;3.95;1.88;;;;;;;12.32;44.03;101200.03;10636917;27;20043;-67
2021/03/28 16:31:34;;;;;;;3.40;1.60;;;;;;;12.29;44.41;101197.44;10619007;27;20050;-70
2021/03/28 16:36:53;;;;;;;3.17;1.20;;;;;;;12.13;43.86;101193.41;10636432;27;20484;-68
2021/03/28 16:42:29;;;;;;;3.70;1.70;;;;;;;11.97;45.10;101192.81;10615628;27;20112;-68
2021/03/28 16:47:30;;;;;;;5.47;1.83;;;;;;;11.93;44.93;101193.78;10502779;28;20053;-67
2021/03/28 16:52:42;;;;;;;3.42;1.88;;;;;;;12.03;44.43;101182.16;10485763;28;20052;-68
2021/03/28 16:57:50;;;;;;;4.07;1.45;;;;;;;11.83;44.33;101184.31;10502898;28;20095;-68
2021/03/28 17:02:52;;;;;;;3.17;1.70;;;;;;;11.89;44.36;101191.22;10504656;28;20060;-69
2021/03/28 17:08:03;;;;;;;5.50;3.15;;;;;;;11.77;44.54;101189.63;10503179;28;20052;-68
2021/03/28 17:13:30;;;;;;;4.40;2.28;;;;;;;11.64;45.05;101175.81;10506448;28;20132;-69
2021/03/28 17:18:39;;;;;;;7.20;1.90;;;;;;;11.31;45.94;101180.78;10503915;28;20056;-68
2021/03/28 17:23:57;;;;;;;3.20;2.40;;;;;;;11.33;45.32;101173.75;10624970;27;20051;-68
2021/03/28 17:29:24;;;;;;;6.47;3.10;;;;;;;11.20;45.68;101177.47;10636309;27;20039;-68
2021/03/28 17:35:02;;;;;;;3.22;2.10;;;;;;;11.25;45.96;101183.53;10635116;27;20063;-67
2021/03/28 17:40:31;;;;;;;4.43;3.63;;;;;;;11.38;45.88;101184.19;10635036;27;20062;-69
2021/03/28 17:45:41;;;;;;;3.63;2.53;;;;;;;11.14;46.59;101181.94;10622515;27;20536;-68
2021/03/28 17:50:46;;;;;;;6.18;2.03;;;;;;;11.13;47.01;101173.19;10623597;27;20124;-68
2021/03/28 17:55:51;;;;;;;3.90;2.35;;;;;;;11.13;47.56;101177.59;10625895;27;20066;-69
2021/03/28 18:01:02;;;;;;;4.72;2.22;;;;;;;11.18;47.37;101173.97;10635502;27;20064;-69
2021/03/28 18:06:07;;;;;;;3.63;1.60;;;;;;;11.04;47.53;101175.97;10617782;27;20051;-67
2021/03/28 18:11:19;;;;;;;4.60;2.17;;;;;;;10.89;48.08;101176.19;10631787;27;20042;-67
2021/03/28 18:16:25;;;;;;;3.88;3.08;;;;;;;10.77;48.71;101179.88;10612458;27;20047;-68
2021/03/28 18:21:32;;;;;;;5.15;4.05;;;;;;;10.83;48.64;101190.28;10619539;27;20039;-68
2021/03/28 18:26:50;;;;;;;5.45;4.95;;;;;;;10.58;49.08;101193.28;10637412;27;20064;-69
2021/03/28 18:31:56;;;;;;;12.40;9.77;;;;;;;10.68;48.77;101207.16;10634041;27;20500;-69
2021/03/28 18:37:21;;;;;;;30.00;21.60;;;;;;;10.63;49.64;101201.09;10614438;27;20035;-68
2021/03/28 18:42:33;;;;;;;75.93;37.65;;;;;;;10.57;49.60;101211.69;10633745;27;20062;-69
2021/03/28 18:47:35;;;;;;;16.30;13.93;;;;;;;10.62;48.94;101209.88;10634214;27;20043;-70
2021/03/28 18:52:36;;;;;;;6.90;4.50;;;;;;;10.60;48.91;101220.41;10635788;27;20132;-70
2021/03/28 18:57:49;;;;;;;9.02;4.10;;;;;;;10.65;49.21;101230.00;10641424;28;20035;-69
2021/03/28 19:03:01;;;;;;;5.20;4.57;;;;;;;10.67;49.16;101220.31;10634187;28;20073;-70
2021/03/28 19:08:41;;;;;;;4.72;3.10;;;;;;;10.75;48.93;101229.84;10619487;28;20050;-69
2021/03/28 19:14:02;;;;;;;4.38;2.90;;;;;;;10.70;49.68;101234.31;10601110;28;20043;-70
2021/03/28 19:19:20;;;;;;;6.32;2.85;;;;;;;10.52;49.76;101230.16;10620610;28;20071;-69
2021/03/28 19:24:28;;;;;;;5.63;3.15;;;;;;;10.50;50.12;101233.72;10642325;27;20050;-71
2021/03/28 19:29:44;;;;;;;5.28;2.63;;;;;;;10.51;50.21;101231.03;10644452;27;20031;-70
2021/03/28 19:35:08;;;;;;;4.00;2.37;;;;;;;10.31;50.40;101228.69;10643494;27;20046;-70
2021/03/28 19:40:39;;;;;;;10.52;7.75;;;;;;;10.48;50.60;101231.06;10633453;27;20143;-71
2021/03/28 19:45:49;;;;;;;4.82;2.78;;;;;;;10.38;50.87;101233.84;10618260;27;20047;-71
2021/03/28 19:50:51;;;;;;;5.63;2.35;;;;;;;10.46;50.36;101237.25;10645046;27;20115;-70
2021/03/28 19:55:58;;;;;;;6.95;2.72;;;;;;;10.00;52.16;101233.34;10623953;27;20050;-70
2021/03/28 20:01:00;;;;;;;4.38;2.70;;;;;;;10.10;51.56;101247.25;10647512;27;20050;-70
2021/03/28 20:06:06;;;;;;;4.93;2.80;;;;;;;10.37;51.04;101240.00;10645394;27;20458;-69
2021/03/28 20:11:14;;;;;;;5.60;1.70;;;;;;;10.24;50.71;101241.84;10640968;27;20058;-69
2021/03/28 20:16:19;;;;;;;4.85;1.90;;;;;;;10.25;50.83;101239.25;10621227;27;20138;-69
2021/03/28 20:21:28;;;;;;;4.55;1.90;;;;;;;10.40;50.98;101235.56;10650445;27;20080;-69
2021/03/28 20:26:43;;;;;;;3.80;2.38;;;;;;;10.35;50.83;101232.13;10621670;27;20051;-69
2021/03/28 20:31:47;;;;;;;4.65;2.42;;;;;;;10.34;50.74;101228.63;10638402;27;20054;-69
2021/03/28 20:36:50;;;;;;;6.82;3.30;;;;;;;10.33;50.88;101228.66;10642995;27;20051;-70
2021/03/28 20:41:57;;;;;;;5.18;2.22;;;;;;;10.31;50.48;101231.31;10634385;27;20039;-69
2021/03/28 20:47:01;;;;;;;4.97;2.67;;;;;;;10.07;51.39;101248.16;10633328;27;20054;-70
2021/03/28 20:52:05;;;;;;;4.25;2.42;;;;;;;10.31;50.60;101252.34;10632643;27;20489;-68
2021/03/28 20:57:10;;;;;;;6.82;1.77;;;;;;;10.18;51.03;101255.03;10624184;27;20043;-68
2021/03/28 21:02:22;;;;;;;4.45;2.08;;;;;;;10.18;51.22;101248.06;10637328;27;20047;-69
2021/03/28 21:07:29;;;;;;;3.30;1.85;;;;;;;10.17;50.94;101255.94;10623615;27;20081;-69
2021/03/28 21:12:39;;;;;;;2.90;1.83;;;;;;;10.00;51.05;101258.72;10638269;27;20122;-67
2021/03/28 21:17:42;;;;;;;3.65;1.83;;;;;;;9.85;51.74;101268.50;10634788;27;20395;-67
2021/03/28 21:22:45;;;;;;;3.75;1.70;;;;;;;10.18;50.53;101270.81;10615363;27;20047;-67
2021/03/28 21:27:48;;;;;;;2.70;1.42;;;;;;;10.08;51.26;101278.78;10634425;27;20035;-66
2021/03/28 21:32:51;;;;;;;4.05;2.00;;;;;;;10.22;50.32;101281.28;10614681;27;20067;-71
2021/03/28 21:37:53;;;;;;;3.28;1.65;;;;;;;10.08;50.92;101283.19;10633660;27;20035;-69
2021/03/28 21:42:59;;;;;;;2.67;1.60;;;;;;;10.24;50.51;101270.75;10633656;27;20449;-70
2021/03/28 21:48:06;;;;;;;4.47;1.35;;;;;;;10.33;50.13;101271.56;10633293;27;20043;-70
2021/03/28 21:53:17;;;;;;;3.23;1.63;;;;;;;10.34;50.19;101275.06;10633003;27;20096;-69
2021/03/28 21:58:19;;;;;;;3.85;1.73;;;;;;;10.42;49.64;101290.75;10632338;27;20031;-70
2021/03/28 22:03:24;;;;;;;5.97;1.90;;;;;;;10.52;49.39;101284.50;10631751;27;20043;-69
2021/03/28 22:08:45;;;;;;;4.03;1.95;;;;;;;10.54;49.08;101280.09;10613707;27;20035;-70
2021/03/28 22:13:47;;;;;;;4.35;1.75;;;;;;;10.61;48.84;101276.50;10613547;27;20047;-70
2021/03/28 22:18:50;;;;;;;4.28;1.80;;;;;;;10.75;48.29;101274.56;10630952;27;20035;-69
2021/03/28 22:24:01;;;;;;;4.80;1.58;;;;;;;10.65;48.53;101266.81;10629373;27;20059;-69
2021/03/28 22:29:10;;;;;;;5.45;1.77;;;;;;;10.82;48.15;101268.34;10630391;27;20074;-69
2021/03/28 22:34:12;;;;;;;3.85;1.70;;;;;;;10.80;48.48;101253.47;10628605;27;20057;-69
2021/03/28 22:39:14;;;;;;;4.95;1.70;;;;;;;10.78;48.59;101257.88;10628941;27;20043;-71
2021/03/28 22:44:34;;;;;;;3.97;1.73;;;;;;;10.73;49.13;101250.06;10628357;27;20042;-70
2021/03/28 22:49:36;;;;;;;5.22;1.65;;;;;;;10.79;48.89;101259.63;10628911;27;20400;-68
2021/03/28 22:54:37;;;;;;;5.45;1.70;;;;;;;10.82;49.22;101257.81;10628961;27;20039;-70
2021/03/28 22:59:41;;;;;;;4.28;1.50;;;;;;;10.77;49.40;101258.78;10641196;27;20066;-69
2021/03/28 23:04:44;;;;;;;5.25;1.58;;;;;;;10.66;49.62;101245.75;10641047;27;20514;-70
2021/03/28 23:09:47;;;;;;;3.83;1.40;;;;;;;10.53;49.81;101252.06;10641629;27;20031;-70
2021/03/28 23:15:05;;;;;;;3.70;1.50;;;;;;;10.56;49.74;101241.50;10640448;27;20050;-69
2021/03/28 23:20:07;;;;;;;5.18;1.60;;;;;;;10.44;49.93;101246.91;10622898;27;20050;-70
2021/03/28 23:25:09;;;;;;;4.45;1.67;;;;;;;10.33;50.22;101249.66;10640012;27;20053;-70
2021/03/28 23:30:11;;;;;;;3.53;1.85;;;;;;;10.47;49.96;101246.88;10641159;27;20046;-70
2021/03/28 23:35:12;;;;;;;3.45;1.40;;;;;;;10.36;49.99;101254.91;10640791;27;20069;-70
2021/03/28 23:40:14;;;;;;;3.45;1.10;;;;;;;10.38;50.17;101260.13;10622520;27;20039;-69
2021/03/28 23:45:20;;;;;;;4.53;1.65;;;;;;;10.43;50.00;101256.56;10640737;27;20046;-69
2021/03/28 23:50:28;;;;;;;2.50;1.10;;;;;;;10.27;50.21;101268.13;10640249;27;20046;-70
2021/03/28 23:55:30;;;;;;;3.25;1.55;;;;;;;10.38;50.04;101279.41;10640546;27;20066;-70
